AirNav   Phillips 66 Aviation Fuel
 
 1312 users online  

MO13 B and S Farms Airfield
Anderson, Missouri, USA

GOING TO ANDERSON?


FAA INFORMATION EFFECTIVE 06 DECEMBER 2018

Location

FAA Identifier: MO13
Lat/Long: 36-38-25.5600N / 094-29-21.6500W
36-38.426000N / 094-29.360833W
36.6404333 / -94.4893472
(estimated)
Elevation: 1143 ft. / 348 m (estimated)
From city: 3 miles W of ANDERSON, MO
Time zone: UTC -6 (UTC -5 during Daylight Saving Time)
Zip code: 64831

Airport Operations

Airport use: Private use. Permission required prior to landing
Activation date: 09/2016
Control tower: no
ARTCC: KANSAS CITY CENTER
FSS: COLUMBIA FLIGHT SERVICE STATION
Attendance: UNATNDD
Wind indicator: lighted
Segmented circle: no

Airport Communications

WX AWOS-3 at GMJ (12 nm W): 119.025 (918-786-8350)

Nearby radio navigation aids

VOR radial/distance  VOR name  Freq  Var
EOSr185/12.4NEOSHO VOR/DME117.3007E
RZCr319/29.6RAZORBACK VORTAC116.4004E

 
NDB name  Hdg/Dist  Freq  Var  ID
SILOAM SPRINGS356/27.128404ESLG ... .-.. --.

Airport Services

Runway Information

Runway 9/27

Dimensions: 2582 x 50 ft. / 787 x 15 m
Surface: turf, in good condition
Runway edge lights: non-standard
LED LIGHTING EVERY 250 FT.
RUNWAY 9  RUNWAY 27
Traffic pattern: leftleft

Airport Ownership and Management from official FAA records

Ownership: Privately-owned
Owner: BRYAN BEAUFORD
1007 BLACKFOOT HOLLOW RD.
ANDERSON, MO 64831
Phone 417-456-1376
Manager: BRYAN BEAUFORD
1007 BLACKFOOT HOLLOW RD.
ANDERSON, MO 64831
Phone 417-456-1316

Instrument Procedures

There are no published instrument procedures at MO13.

Some nearby airports with instrument procedures:

KEOS - Neosho Hugh Robinson Airport (11 nm NE)
KGMJ - Grove Municipal Airport (12 nm W)
5M5 - Crystal Lake Airport (18 nm S)
KVBT - Bentonville Municipal Airport/Louise M Thaden Field (22 nm SE)
KXNA - Northwest Arkansas Regional Airport (23 nm S)
 
Loc | Ops | Rwys | IFR | FBO | Links
Com | Nav | Svcs | Stats | Notes


 
Aerial photo
No photo
 
Airport distance calculator
Flying to B and S Farms Airfield? Find the distance to fly.

From to MO13

Sunrise and sunset
Times for 14-Dec-2018
 Local
(UTC-6)
 Zulu
(UTC)
Morning civil twilight06:5512:55
Sunrise07:2313:23
Sunset17:0223:02
Evening civil twilight17:3123:31

Current date and time
Zulu (UTC)  14-Dec-2018 17:24:22
Local (UTC-6)  14-Dec-2018 11:24:22
 
METAR
KEOS 
11nm NE 
SuperAWOS
141635Z AUTO 03012G18KT 1SM BR 03/03 A3006
KGMJ 
12nm W 
141655Z AUTO 03008KT 4SM BR OVC008 05/03 A3009 RMK AO2 LTG DSNT SE
KVBT 
22nm SE 
141656Z AUTO 02015G21KT 10SM -RA OVC005 05/04 A3003 RMK AO2 RAB01E27B45 SLP177 P0000 T00500039
TAF
KXNA 
23nm SE 
141120Z 1412/1512 36013G23KT 3SM BR OVC003 FM141800 01015G25KT 2SM -RA BR OVC007 FM150200 36015G23KT P6SM OVC012
KROG 
26nm SE 
141120Z 1412/1512 02010G17KT 2SM -RA BR OVC003 FM141800 01015G25KT 2SM -RA BR OVC007 FM150200 36015G23KT P6SM OVC012
NOTAMs
Click for the latest NOTAMs
NOTAMs are issued by the DoD/FAA and will open in a separate window not controlled by AirNav.

 

 
 

Would you like to see your business listed on this page?

 If your business provides an interesting product or service to pilots, flight crews, aircraft, or users of the B and S Farms Airfield, you should consider listing it here.  To start the listing process, click on the button below
 
Add a business
 

Other Pages about B and S Farms Airfield

Update a link
 
Copyright © AirNav, LLC. All rights reserved. Privacy Policy  Contact